createdAt,value
2023-03-28T00:01:59.336Z,102517.28
2023-03-28T00:04:45.747Z,102515.47
2023-03-28T00:07:33.560Z,102518.78
2023-03-28T00:10:20.752Z,102517.63
2023-03-28T00:13:07.073Z,102524.47
2023-03-28T00:15:53.598Z,102520.34
2023-03-28T00:18:40.286Z,102533.31
2023-03-28T00:21:29.471Z,102527.69
2023-03-28T00:24:21.258Z,102524.34
2023-03-28T00:27:08.344Z,102528.66
2023-03-28T00:29:54.568Z,102522.19
2023-03-28T00:32:40.982Z,102527.44
2023-03-28T00:35:27.734Z,102525.53
2023-03-28T00:38:15.562Z,102526.59
2023-03-28T00:41:05.734Z,102521.41
2023-03-28T00:43:53.063Z,102523.84
2023-03-28T00:46:42.880Z,102518.44
2023-03-28T00:49:30.061Z,102528.09
2023-03-28T00:52:18.824Z,102524.84
2023-03-28T00:55:09.120Z,102519.91
2023-03-28T00:57:57.075Z,102518.94
2023-03-28T01:00:47.086Z,102522.50
2023-03-28T01:03:37.685Z,102522.13
2023-03-28T01:06:26.870Z,102516.94
2023-03-28T01:09:15.376Z,102512.84
2023-03-28T01:12:07.624Z,102519.00
2023-03-28T01:14:56.567Z,102523.03
2023-03-28T01:17:46.450Z,102514.63
2023-03-28T01:20:52.577Z,102510.47
2023-03-28T01:24:21.095Z,102508.47
2023-03-28T01:27:16.159Z,102503.50
2023-03-28T01:30:37.814Z,102506.41
2023-03-28T01:34:04.725Z,102501.81
2023-03-28T01:37:06.633Z,102498.03
2023-03-28T01:40:19.168Z,102502.03
2023-03-28T01:43:24.052Z,102496.59
2023-03-28T01:46:16.941Z,102502.19
2023-03-28T01:49:08.878Z,102497.81
2023-03-28T01:51:59.238Z,102485.91
2023-03-28T01:54:53.101Z,102499.72
2023-03-28T01:57:43.249Z,102490.81
2023-03-28T02:00:36.239Z,102493.38
2023-03-28T02:03:30.255Z,102492.03
2023-03-28T02:06:39.606Z,102487.91
2023-03-28T02:09:34.123Z,102484.56
2023-03-28T02:12:31.641Z,102488.34
2023-03-28T02:15:27.956Z,102487.94
2023-03-28T02:18:39.116Z,102487.00
2023-03-28T02:21:52.228Z,102488.00
2023-03-28T02:24:52.066Z,102482.66
2023-03-28T02:28:02.510Z,102488.69
2023-03-28T02:30:56.382Z,102490.34
2023-03-28T02:33:44.684Z,102490.75
2023-03-28T02:36:39.372Z,102489.97
2023-03-28T02:39:44.487Z,102481.28
2023-03-28T02:42:55.857Z,102482.34
2023-03-28T02:46:14.648Z,102481.66
2023-03-28T02:49:21.573Z,102486.28
2023-03-28T02:52:14.682Z,102485.22
2023-03-28T02:55:06.606Z,102495.84
2023-03-28T02:58:01.270Z,102493.63
2023-03-28T03:00:49.429Z,102489.22
2023-03-28T03:03:37.883Z,102484.81
2023-03-28T03:06:24.582Z,102486.81
2023-03-28T03:09:10.901Z,102482.16
2023-03-28T03:11:57.198Z,102476.75
2023-03-28T03:14:44.141Z,102471.13
2023-03-28T03:17:50.999Z,102475.44
2023-03-28T03:20:45.605Z,102479.47
2023-03-28T03:23:32.173Z,102477.09
2023-03-28T03:26:19.913Z,102477.59
2023-03-28T03:29:22.948Z,102479.84
2023-03-28T03:32:10.271Z,102481.63
2023-03-28T03:35:02.138Z,102481.38
2023-03-28T03:37:50.439Z,102479.16
2023-03-28T03:40:36.778Z,102482.84
2023-03-28T03:43:24.501Z,102482.22
2023-03-28T03:46:10.949Z,102474.53
2023-03-28T03:48:58.010Z,102470.31
2023-03-28T03:51:44.514Z,102468.81
2023-03-28T03:54:38.196Z,102464.09
2023-03-28T03:57:25.244Z,102465.09
2023-03-28T04:00:18.882Z,102467.44
2023-03-28T04:03:09.160Z,102475.53
2023-03-28T04:06:11.021Z,102477.66
2023-03-28T04:08:57.229Z,102476.38
2023-03-28T04:12:05.844Z,102470.44
2023-03-28T04:15:02.475Z,102461.50
2023-03-28T04:17:56.908Z,102469.41
2023-03-28T04:20:49.579Z,102469.66
2023-03-28T04:23:48.327Z,102471.25
2023-03-28T04:26:50.066Z,102462.53
2023-03-28T04:29:41.697Z,102460.03
2023-03-28T04:32:50.412Z,102467.88
2023-03-28T04:35:43.100Z,102464.78
2023-03-28T04:38:31.750Z,102462.69
2023-03-28T04:41:30.130Z,102462.41
2023-03-28T04:44:22.445Z,102462.19
2023-03-28T04:47:18.474Z,102455.81
2023-03-28T04:50:05.627Z,102459.44
2023-03-28T04:52:55.456Z,102462.63
2023-03-28T04:55:44.029Z,102457.91
2023-03-28T04:58:39.152Z,102464.31
2023-03-28T05:01:27.360Z,102465.38
2023-03-28T05:04:35.362Z,102461.50
2023-03-28T05:07:24.868Z,102464.59
2023-03-28T05:10:13.974Z,102470.88
2023-03-28T05:13:01.883Z,102476.81
2023-03-28T05:15:49.909Z,102471.41
2023-03-28T05:18:56.163Z,102479.56
2023-03-28T05:22:06.730Z,102486.41
2023-03-28T05:24:54.985Z,102484.25
2023-03-28T05:27:41.785Z,102479.75
2023-03-28T05:30:28.541Z,102479.78
2023-03-28T05:33:16.387Z,102476.44
2023-03-28T05:36:04.568Z,102479.75
2023-03-28T05:38:53.887Z,102483.47
2023-03-28T05:41:40.489Z,102490.44
2023-03-28T05:44:26.598Z,102491.34
2023-03-28T05:47:39.055Z,102488.91
2023-03-28T05:50:26.298Z,102492.28
2023-03-28T05:53:18.503Z,102497.91
2023-03-28T05:56:07.482Z,102501.00
2023-03-28T05:58:53.661Z,102499.69
2023-03-28T06:01:43.155Z,102493.53
2023-03-28T06:04:29.731Z,102490.78
2023-03-28T06:07:18.548Z,102491.47
2023-03-28T06:10:10.114Z,102493.88
2023-03-28T06:12:58.649Z,102489.88
2023-03-28T06:15:45.496Z,102485.56
2023-03-28T06:18:31.841Z,102488.41
2023-03-28T06:21:18.244Z,102483.44
2023-03-28T06:24:05.737Z,102487.03
2023-03-28T06:26:57.649Z,102489.00
2023-03-28T06:29:45.844Z,102489.69
2023-03-28T06:32:32.514Z,102490.34
2023-03-28T06:35:19.639Z,102495.16
2023-03-28T06:38:06.133Z,102499.72
2023-03-28T06:40:53.167Z,102503.63
2023-03-28T06:43:39.585Z,102499.00
2023-03-28T06:46:28.869Z,102503.69
2023-03-28T06:49:16.160Z,102497.78
2023-03-28T06:52:22.556Z,102506.94
2023-03-28T06:55:10.668Z,102504.63
2023-03-28T06:57:57.054Z,102504.78
2023-03-28T07:00:52.131Z,102500.75
2023-03-28T07:03:59.532Z,102505.63
2023-03-28T07:06:46.806Z,102510.75
2023-03-28T07:09:33.219Z,102504.44
2023-03-28T07:12:30.272Z,102513.03
2023-03-28T07:15:19.073Z,102506.38
2023-03-28T07:18:10.304Z,102512.88
2023-03-28T07:21:04.122Z,102513.03
2023-03-28T07:23:52.018Z,102516.47
2023-03-28T07:26:42.233Z,102506.72
2023-03-28T07:29:28.792Z,102517.25
2023-03-28T07:32:16.770Z,102514.47
2023-03-28T07:35:07.481Z,102524.78
2023-03-28T07:38:01.783Z,102509.44
2023-03-28T07:41:09.063Z,102515.44
2023-03-28T07:43:56.046Z,102517.19
2023-03-28T07:46:44.336Z,102510.06
2023-03-28T07:49:31.333Z,102521.94
2023-03-28T07:52:18.177Z,102522.06
2023-03-28T07:55:06.539Z,102521.13
2023-03-28T07:57:57.079Z,102534.50
2023-03-28T08:00:46.975Z,102528.69
2023-03-28T08:03:52.931Z,102534.09
2023-03-28T08:06:41.332Z,102521.66
2023-03-28T08:09:28.478Z,102522.97
2023-03-28T08:12:34.725Z,102538.91
2023-03-28T08:15:21.435Z,102530.91
2023-03-28T08:18:07.897Z,102530.69
2023-03-28T08:21:01.048Z,102531.63
2023-03-28T08:23:50.592Z,102530.09
2023-03-28T08:26:37.535Z,102532.44
2023-03-28T08:29:25.469Z,102534.41
2023-03-28T08:32:11.888Z,102533.78
2023-03-28T08:35:02.808Z,102548.34
2023-03-28T08:37:51.354Z,102541.94
2023-03-28T08:40:41.235Z,102540.81
2023-03-28T08:43:50.625Z,102550.16
2023-03-28T08:46:41.380Z,102556.31
2023-03-28T08:49:28.277Z,102555.91
2023-03-28T08:52:17.005Z,102562.44
2023-03-28T08:55:08.454Z,102553.72
2023-03-28T08:57:56.504Z,102567.97
2023-03-28T09:00:42.981Z,102575.66
2023-03-28T09:03:33.648Z,102585.75
2023-03-28T09:06:28.059Z,102588.53
2023-03-28T09:09:38.246Z,102589.31
2023-03-28T09:13:01.006Z,102581.63
2023-03-28T09:16:01.236Z,102583.53
2023-03-28T09:21:59.590Z,102587.56
2023-03-28T09:25:06.235Z,102588.25
2023-03-28T09:28:00.049Z,102585.81
2023-03-28T09:30:49.776Z,102582.28
2023-03-28T09:33:40.591Z,102579.56
2023-03-28T09:36:45.425Z,102580.06
2023-03-28T09:39:39.447Z,102576.13
2023-03-28T09:42:35.168Z,102587.91
2023-03-28T09:45:58.396Z,102576.94
2023-03-28T09:49:18.386Z,102572.28
2023-03-28T09:52:16.617Z,102569.88
2023-03-28T09:55:18.009Z,102563.78
2023-03-28T09:58:08.345Z,102561.56
2023-03-28T10:01:27.158Z,102563.47
2023-03-28T10:04:49.139Z,102549.09
2023-03-28T10:07:43.751Z,102542.88
2023-03-28T10:11:07.847Z,102537.81
2023-03-28T10:13:55.609Z,102541.22
2023-03-28T10:16:43.827Z,102531.19
2023-03-28T10:19:47.472Z,102531.53
2023-03-28T10:22:40.885Z,102525.38
2023-03-28T10:25:35.716Z,102527.97
2023-03-28T10:28:31.679Z,102520.53
2023-03-28T10:31:29.129Z,102523.16
2023-03-28T10:34:27.813Z,102521.97
2023-03-28T10:37:37.341Z,102522.69
2023-03-28T10:40:44.007Z,102520.38
2023-03-28T10:43:37.723Z,102504.81
2023-03-28T10:46:40.983Z,102497.44
2023-03-28T10:50:03.801Z,102494.25
2023-03-28T10:52:58.674Z,102487.31
2023-03-28T10:56:02.817Z,102485.06
2023-03-28T10:59:18.933Z,102482.81
2023-03-28T11:02:36.144Z,102476.56
2023-03-28T11:05:37.514Z,102476.66
2023-03-28T11:08:41.663Z,102471.31
2023-03-28T11:11:44.521Z,102457.72
2023-03-28T11:14:44.208Z,102452.53
2023-03-28T11:17:46.101Z,102449.16
2023-03-28T11:20:45.420Z,102446.22
2023-03-28T11:23:43.870Z,102442.56
2023-03-28T11:27:15.962Z,102441.28
2023-03-28T11:30:12.026Z,102426.28
2023-03-28T11:33:13.125Z,102433.44
2023-03-28T11:36:04.758Z,102437.84
2023-03-28T11:38:56.298Z,102426.91
2023-03-28T11:41:46.297Z,102422.50
2023-03-28T11:44:45.524Z,102430.75
2023-03-28T11:47:38.220Z,102422.78
2023-03-28T11:50:36.344Z,102418.06
2023-03-28T11:53:36.633Z,102397.25
2023-03-28T11:56:32.762Z,102398.53
2023-03-28T11:59:53.433Z,102380.25
2023-03-28T12:02:43.686Z,102384.03
2023-03-28T12:05:34.922Z,102381.47
2023-03-28T12:08:32.332Z,102375.78
2023-03-28T12:11:26.521Z,102368.22
2023-03-28T12:14:36.062Z,102356.59
2023-03-28T12:17:36.193Z,102363.25
2023-03-28T12:20:32.709Z,102348.34
2023-03-28T12:23:33.059Z,102356.97
2023-03-28T12:26:57.097Z,102346.56
2023-03-28T12:29:49.585Z,102351.63
2023-03-28T12:32:48.301Z,102352.47
2023-03-28T12:35:47.115Z,102340.50
2023-03-28T12:38:45.628Z,102339.09
2023-03-28T12:41:47.885Z,102341.25
2023-03-28T12:44:43.116Z,102338.47
2023-03-28T12:47:33.459Z,102325.53
2023-03-28T12:50:23.535Z,102323.75
2023-03-28T12:53:13.214Z,102324.00
2023-03-28T12:56:03.809Z,102318.06
2023-03-28T12:58:53.565Z,102319.25
2023-03-28T13:01:50.281Z,102317.84
2023-03-28T13:04:49.801Z,102313.59
2023-03-28T13:07:53.675Z,102310.84
2023-03-28T13:10:45.723Z,102308.25
2023-03-28T13:13:45.117Z,102308.22
2023-03-28T13:16:46.096Z,102303.66
2023-03-28T13:19:39.447Z,102292.09
2023-03-28T13:22:29.660Z,102285.75
2023-03-28T13:25:34.311Z,102284.59
2023-03-28T13:28:30.829Z,102275.19
2023-03-28T13:31:24.345Z,102270.31
2023-03-28T13:34:22.430Z,102268.41
2023-03-28T13:37:22.928Z,102263.50
2023-03-28T13:40:48.136Z,102261.69
2023-03-28T13:43:44.816Z,102249.81
2023-03-28T13:46:37.277Z,102248.78
2023-03-28T13:49:32.050Z,102240.66
2023-03-28T13:52:24.432Z,102236.00
2023-03-28T13:55:20.660Z,102223.56
2023-03-28T13:58:13.728Z,102230.34
2023-03-28T14:01:08.501Z,102225.34
2023-03-28T14:03:56.867Z,102216.88
2023-03-28T14:06:43.183Z,102212.03
2023-03-28T14:09:34.685Z,102200.81
2023-03-28T14:12:22.624Z,102196.72
2023-03-28T14:15:13.306Z,102198.53
2023-03-28T14:18:01.869Z,102187.00
2023-03-28T14:20:49.945Z,102181.75
2023-03-28T14:23:38.228Z,102175.56
2023-03-28T14:26:28.518Z,102174.16
2023-03-28T14:29:17.382Z,102157.94
2023-03-28T14:32:08.118Z,102160.09
2023-03-28T14:34:56.099Z,102162.72
2023-03-28T14:37:51.082Z,102146.47
2023-03-28T14:40:39.035Z,102149.66
2023-03-28T14:43:29.972Z,102140.28
2023-03-28T14:46:18.244Z,102139.72
2023-03-28T14:49:09.201Z,102123.50
2023-03-28T14:51:57.395Z,102122.09
2023-03-28T14:54:47.933Z,102117.50
2023-03-28T14:57:37.578Z,102105.94
2023-03-28T15:00:29.061Z,102098.16
2023-03-28T15:03:18.223Z,102090.97
2023-03-28T15:06:05.169Z,102093.78
2023-03-28T15:08:52.534Z,102081.25
2023-03-28T15:11:43.770Z,102087.44
2023-03-28T15:14:36.826Z,102082.41
2023-03-28T15:17:24.936Z,102077.06
2023-03-28T15:20:17.952Z,102072.81
2023-03-28T15:23:07.733Z,102067.72
2023-03-28T15:25:55.480Z,102056.44
2023-03-28T15:28:43.113Z,102062.53
2023-03-28T15:31:30.154Z,102061.75
2023-03-28T15:34:21.896Z,102060.91
2023-03-28T15:37:14.421Z,102053.88
2023-03-28T15:40:22.656Z,102057.88
2023-03-28T15:43:29.138Z,102057.47
2023-03-28T15:46:16.980Z,102045.06
2023-03-28T15:49:06.270Z,102046.88
2023-03-28T15:51:57.987Z,102042.06
2023-03-28T15:54:53.128Z,102042.19
2023-03-28T15:57:39.789Z,102032.41
2023-03-28T16:00:44.360Z,102032.31
2023-03-28T16:03:34.593Z,102032.00
2023-03-28T16:06:31.674Z,102027.88
2023-03-28T16:09:21.648Z,102020.06
2023-03-28T16:12:08.088Z,102019.25
2023-03-28T16:15:21.926Z,102027.84
2023-03-28T16:18:17.857Z,102009.63
2023-03-28T16:21:12.187Z,102008.38
2023-03-28T16:23:59.722Z,102013.22
2023-03-28T16:26:46.804Z,102005.88
2023-03-28T16:29:33.285Z,102003.25
2023-03-28T16:32:23.724Z,101999.69
2023-03-28T16:35:10.009Z,101997.03
2023-03-28T16:37:57.700Z,101979.94
2023-03-28T16:40:45.263Z,101984.66
2023-03-28T16:43:31.616Z,101982.38
2023-03-28T16:46:18.133Z,101978.06
2023-03-28T16:49:04.707Z,101971.00
2023-03-28T16:51:51.593Z,101971.56
2023-03-28T16:54:39.019Z,101970.69
2023-03-28T16:57:25.276Z,101965.47
2023-03-28T17:00:17.607Z,101963.03
2023-03-28T17:03:05.102Z,101961.75
2023-03-28T17:05:51.508Z,101959.03
2023-03-28T17:08:38.089Z,101957.50
2023-03-28T17:11:26.981Z,101949.50
2023-03-28T17:14:13.568Z,101947.97
2023-03-28T17:16:59.973Z,101933.28
2023-03-28T17:19:46.717Z,101927.25
2023-03-28T17:22:33.137Z,101927.88
2023-03-28T17:25:19.514Z,101922.13
2023-03-28T17:28:07.239Z,101921.03
2023-03-28T17:30:53.727Z,101916.06
2023-03-28T17:33:40.217Z,101903.44
2023-03-28T17:36:28.357Z,101907.84
2023-03-28T17:39:14.842Z,101907.63
2023-03-28T17:42:01.360Z,101901.00
2023-03-28T17:44:49.412Z,101892.06
2023-03-28T17:47:35.824Z,101895.88
2023-03-28T17:50:26.516Z,101894.03
2023-03-28T17:53:12.766Z,101893.09
2023-03-28T17:56:00.232Z,101889.84
2023-03-28T17:58:47.594Z,101887.63
2023-03-28T18:01:35.471Z,101876.25
2023-03-28T18:04:22.124Z,101877.50
2023-03-28T18:07:32.940Z,101877.19
2023-03-28T18:10:21.374Z,101885.09
2023-03-28T18:13:07.584Z,101883.66
2023-03-28T18:15:54.018Z,101874.59
2023-03-28T18:18:43.462Z,101888.72
2023-03-28T18:21:33.119Z,101897.19
2023-03-28T18:24:20.437Z,101886.34
2023-03-28T18:27:06.628Z,101884.41
2023-03-28T18:29:52.997Z,101886.28
2023-03-28T18:32:39.378Z,101874.44
2023-03-28T18:35:29.157Z,101874.94
2023-03-28T18:38:18.821Z,101864.19
2023-03-28T18:41:06.674Z,101849.13
2023-03-28T18:43:54.356Z,101834.69
2023-03-28T18:46:41.523Z,101823.41
2023-03-28T18:49:28.512Z,101815.16
2023-03-28T18:52:19.414Z,101814.50
2023-03-28T18:55:06.970Z,101800.84
2023-03-28T18:57:53.412Z,101801.03
2023-03-28T19:00:40.562Z,101795.50
2023-03-28T19:03:28.835Z,101779.19
2023-03-28T19:06:17.762Z,101770.69
2023-03-28T19:09:05.420Z,101764.88
2023-03-28T19:11:52.427Z,101764.59
2023-03-28T19:14:41.303Z,101764.19
2023-03-28T19:17:27.778Z,101754.81
2023-03-28T19:20:26.524Z,101754.25
2023-03-28T19:23:15.242Z,101759.06
2023-03-28T19:26:03.567Z,101745.19
2023-03-28T19:28:51.395Z,101739.09
2023-03-28T19:31:37.715Z,101741.34
2023-03-28T19:34:24.197Z,101741.34
2023-03-28T19:37:10.777Z,101726.63
2023-03-28T19:39:59.249Z,101741.50
2023-03-28T19:42:46.763Z,101734.84
2023-03-28T19:45:33.355Z,101737.97
2023-03-28T19:48:19.768Z,101735.81
2023-03-28T19:51:06.443Z,101733.97
2023-03-28T19:53:52.994Z,101733.31
2023-03-28T19:56:41.892Z,101731.44
2023-03-28T19:59:29.642Z,101742.38
2023-03-28T20:02:16.043Z,101730.16
2023-03-28T20:05:02.657Z,101732.88
2023-03-28T20:07:49.356Z,101733.41
2023-03-28T20:10:40.160Z,101732.72
2023-03-28T20:13:26.956Z,101727.63
2023-03-28T20:16:15.291Z,101733.88
2023-03-28T20:19:01.560Z,101737.53
2023-03-28T20:21:49.003Z,101741.78
2023-03-28T20:24:35.777Z,101739.22
2023-03-28T20:27:24.479Z,101732.88
2023-03-28T20:30:12.242Z,101733.31
2023-03-28T20:33:00.896Z,101730.03
2023-03-28T20:35:52.520Z,101717.69
2023-03-28T20:38:39.061Z,101720.38
2023-03-28T20:41:26.453Z,101718.25
2023-03-28T20:44:20.214Z,101702.63
2023-03-28T20:47:08.613Z,101702.63
2023-03-28T20:49:59.133Z,101693.84
2023-03-28T20:52:45.925Z,101682.34
2023-03-28T20:55:33.901Z,101692.16
2023-03-28T20:58:19.989Z,101678.38
2023-03-28T21:01:08.924Z,101683.50
2023-03-28T21:03:57.345Z,101687.75
2023-03-28T21:06:45.930Z,101689.84
2023-03-28T21:09:32.308Z,101684.22
2023-03-28T21:12:18.977Z,101675.84
2023-03-28T21:15:06.690Z,101679.38
2023-03-28T21:17:53.708Z,101679.25
2023-03-28T21:20:40.136Z,101670.31
2023-03-28T21:23:27.954Z,101665.03
2023-03-28T21:26:17.327Z,101663.19
2023-03-28T21:29:03.879Z,101654.03
2023-03-28T21:31:50.057Z,101650.22
2023-03-28T21:34:36.708Z,101643.84
2023-03-28T21:37:23.151Z,101645.81
2023-03-28T21:40:11.325Z,101645.25
2023-03-28T21:42:57.669Z,101648.53
2023-03-28T21:45:47.705Z,101646.66
2023-03-28T21:48:34.333Z,101648.38
2023-03-28T21:51:20.968Z,101654.06
2023-03-28T21:54:07.353Z,101647.78
2023-03-28T21:56:55.041Z,101651.22
2023-03-28T21:59:41.855Z,101643.53
2023-03-28T22:02:29.502Z,101658.00
2023-03-28T22:05:28.673Z,101652.50
2023-03-28T22:08:15.527Z,101639.47
2023-03-28T22:11:03.789Z,101642.00
2023-03-28T22:13:51.809Z,101639.75
2023-03-28T22:16:39.990Z,101628.41
2023-03-28T22:19:29.996Z,101638.88
2023-03-28T22:22:17.848Z,101644.28
2023-03-28T22:25:04.265Z,101641.31
2023-03-28T22:27:50.424Z,101624.19
2023-03-28T22:30:39.724Z,101616.25
2023-03-28T22:33:26.345Z,101609.16
2023-03-28T22:36:13.375Z,101618.50
2023-03-28T22:39:00.468Z,101606.31
2023-03-28T22:41:47.200Z,101589.19
2023-03-28T22:44:33.568Z,101589.31
2023-03-28T22:47:21.203Z,101593.16
2023-03-28T22:50:09.894Z,101585.34
2023-03-28T22:52:56.477Z,101583.41
2023-03-28T22:55:44.562Z,101580.25
2023-03-28T22:58:31.444Z,101571.75
2023-03-28T23:01:18.171Z,101581.25
2023-03-28T23:04:06.620Z,101568.78
2023-03-28T23:06:53.632Z,101567.09
2023-03-28T23:09:41.609Z,101560.28
2023-03-28T23:12:27.787Z,101560.16
2023-03-28T23:15:14.883Z,101553.75
2023-03-28T23:18:01.002Z,101555.06
2023-03-28T23:20:51.174Z,101558.44
2023-03-28T23:23:37.587Z,101559.31
2023-03-28T23:26:23.769Z,101543.84
2023-03-28T23:29:10.065Z,101543.41
2023-03-28T23:31:56.490Z,101547.53
2023-03-28T23:34:43.478Z,101542.72
2023-03-28T23:37:31.058Z,101535.47
2023-03-28T23:40:17.204Z,101533.09
2023-03-28T23:43:03.283Z,101534.22
2023-03-28T23:45:49.383Z,101530.56
2023-03-28T23:48:36.147Z,101518.91
2023-03-28T23:51:24.329Z,101507.72
2023-03-28T23:54:12.656Z,101501.78
2023-03-28T23:56:59.293Z,101503.28
2023-03-28T23:59:45.770Z,101499.91
